sensor_id;sensor_type;location;lat;lon;timestamp;P1;durP1;ratioP1;P2;durP2;ratioP2
20709;SDS011;10516;51.518;9.864;2022-11-20T00:01:32;17.30;;;10.63;;
20709;SDS011;10516;51.518;9.864;2022-11-20T00:03:58;16.50;;;9.77;;
20709;SDS011;10516;51.518;9.864;2022-11-20T00:06:25;15.65;;;9.73;;
20709;SDS011;10516;51.518;9.864;2022-11-20T00:08:53;16.80;;;10.75;;
20709;SDS011;10516;51.518;9.864;2022-11-20T00:11:21;23.25;;;11.60;;
20709;SDS011;10516;51.518;9.864;2022-11-20T00:13:49;17.98;;;10.88;;
20709;SDS011;10516;51.518;9.864;2022-11-20T00:16:17;16.95;;;11.07;;
20709;SDS011;10516;51.518;9.864;2022-11-20T00:18:44;16.77;;;11.10;;
20709;SDS011;10516;51.518;9.864;2022-11-20T00:21:14;20.05;;;14.65;;
20709;SDS011;10516;51.518;9.864;2022-11-20T00:23:41;30.55;;;21.23;;
20709;SDS011;10516;51.518;9.864;2022-11-20T00:26:08;21.13;;;13.82;;
20709;SDS011;10516;51.518;9.864;2022-11-20T00:28:35;19.20;;;12.38;;
20709;SDS011;10516;51.518;9.864;2022-11-20T00:31:04;18.35;;;12.23;;
20709;SDS011;10516;51.518;9.864;2022-11-20T00:33:31;19.67;;;11.55;;
20709;SDS011;10516;51.518;9.864;2022-11-20T00:36:00;20.13;;;11.35;;
20709;SDS011;10516;51.518;9.864;2022-11-20T00:38:31;20.00;;;13.20;;
20709;SDS011;10516;51.518;9.864;2022-11-20T00:40:57;18.95;;;12.25;;
20709;SDS011;10516;51.518;9.864;2022-11-20T00:43:23;19.67;;;11.77;;
20709;SDS011;10516;51.518;9.864;2022-11-20T00:45:49;17.02;;;12.13;;
20709;SDS011;10516;51.518;9.864;2022-11-20T00:48:15;14.57;;;9.75;;
20709;SDS011;10516;51.518;9.864;2022-11-20T00:50:40;15.85;;;10.68;;
20709;SDS011;10516;51.518;9.864;2022-11-20T00:53:06;20.00;;;11.55;;
20709;SDS011;10516;51.518;9.864;2022-11-20T00:55:32;17.70;;;10.43;;
20709;SDS011;10516;51.518;9.864;2022-11-20T00:57:57;16.73;;;11.60;;
20709;SDS011;10516;51.518;9.864;2022-11-20T01:00:22;20.88;;;13.05;;
20709;SDS011;10516;51.518;9.864;2022-11-20T01:02:48;21.33;;;13.45;;
20709;SDS011;10516;51.518;9.864;2022-11-20T01:05:13;23.50;;;13.40;;
20709;SDS011;10516;51.518;9.864;2022-11-20T01:07:39;21.13;;;12.38;;
20709;SDS011;10516;51.518;9.864;2022-11-20T01:10:04;21.42;;;13.50;;
20709;SDS011;10516;51.518;9.864;2022-11-20T01:12:30;21.02;;;13.73;;
20709;SDS011;10516;51.518;9.864;2022-11-20T01:14:55;21.63;;;12.43;;
20709;SDS011;10516;51.518;9.864;2022-11-20T01:17:20;18.42;;;12.32;;
20709;SDS011;10516;51.518;9.864;2022-11-20T01:19:48;17.33;;;11.43;;
20709;SDS011;10516;51.518;9.864;2022-11-20T01:22:15;19.85;;;11.75;;
20709;SDS011;10516;51.518;9.864;2022-11-20T01:24:40;21.77;;;11.27;;
20709;SDS011;10516;51.518;9.864;2022-11-20T01:27:05;18.77;;;11.48;;
20709;SDS011;10516;51.518;9.864;2022-11-20T01:29:31;21.70;;;11.93;;
20709;SDS011;10516;51.518;9.864;2022-11-20T01:31:56;23.92;;;11.50;;
20709;SDS011;10516;51.518;9.864;2022-11-20T01:34:22;21.15;;;12.07;;
20709;SDS011;10516;51.518;9.864;2022-11-20T01:36:47;16.20;;;10.55;;
20709;SDS011;10516;51.518;9.864;2022-11-20T01:39:14;17.15;;;10.45;;
20709;SDS011;10516;51.518;9.864;2022-11-20T01:41:42;18.65;;;11.70;;
20709;SDS011;10516;51.518;9.864;2022-11-20T01:47:25;16.42;;;9.23;;
20709;SDS011;10516;51.518;9.864;2022-11-20T01:49:54;18.25;;;10.52;;
20709;SDS011;10516;51.518;9.864;2022-11-20T01:52:38;17.70;;;9.35;;
20709;SDS011;10516;51.518;9.864;2022-11-20T01:55:15;13.85;;;9.00;;
20709;SDS011;10516;51.518;9.864;2022-11-20T01:58:04;14.07;;;8.85;;
20709;SDS011;10516;51.518;9.864;2022-11-20T02:00:31;16.10;;;10.05;;
20709;SDS011;10516;51.518;9.864;2022-11-20T02:02:57;13.02;;;9.90;;
20709;SDS011;10516;51.518;9.864;2022-11-20T02:05:28;12.73;;;9.77;;
20709;SDS011;10516;51.518;9.864;2022-11-20T02:07:54;16.83;;;9.48;;
20709;SDS011;10516;51.518;9.864;2022-11-20T02:10:22;15.20;;;10.13;;
20709;SDS011;10516;51.518;9.864;2022-11-20T02:12:47;17.77;;;10.10;;
20709;SDS011;10516;51.518;9.864;2022-11-20T02:15:32;13.32;;;8.63;;
20709;SDS011;10516;51.518;9.864;2022-11-20T02:17:58;19.98;;;10.77;;
20709;SDS011;10516;51.518;9.864;2022-11-20T02:20:24;13.93;;;9.10;;
20709;SDS011;10516;51.518;9.864;2022-11-20T02:22:59;16.48;;;9.70;;
20709;SDS011;10516;51.518;9.864;2022-11-20T02:25:31;16.88;;;10.23;;
20709;SDS011;10516;51.518;9.864;2022-11-20T02:28:00;15.32;;;9.10;;
20709;SDS011;10516;51.518;9.864;2022-11-20T02:30:25;15.05;;;9.45;;
20709;SDS011;10516;51.518;9.864;2022-11-20T02:32:51;14.70;;;9.27;;
20709;SDS011;10516;51.518;9.864;2022-11-20T02:37:45;16.05;;;9.77;;
20709;SDS011;10516;51.518;9.864;2022-11-20T02:40:14;15.57;;;9.88;;
20709;SDS011;10516;51.518;9.864;2022-11-20T02:42:39;13.70;;;8.98;;
20709;SDS011;10516;51.518;9.864;2022-11-20T02:45:05;12.60;;;9.18;;
20709;SDS011;10516;51.518;9.864;2022-11-20T02:47:31;14.00;;;9.20;;
20709;SDS011;10516;51.518;9.864;2022-11-20T02:49:57;14.70;;;9.38;;
20709;SDS011;10516;51.518;9.864;2022-11-20T02:52:23;15.98;;;9.38;;
20709;SDS011;10516;51.518;9.864;2022-11-20T02:54:49;16.65;;;10.38;;
20709;SDS011;10516;51.518;9.864;2022-11-20T02:57:14;17.52;;;10.25;;
20709;SDS011;10516;51.518;9.864;2022-11-20T02:59:40;17.20;;;10.10;;
20709;SDS011;10516;51.518;9.864;2022-11-20T03:02:05;23.65;;;11.75;;
20709;SDS011;10516;51.518;9.864;2022-11-20T03:04:31;17.33;;;10.85;;
20709;SDS011;10516;51.518;9.864;2022-11-20T03:06:56;23.80;;;12.40;;
20709;SDS011;10516;51.518;9.864;2022-11-20T03:09:21;16.52;;;10.10;;
20709;SDS011;10516;51.518;9.864;2022-11-20T03:11:47;17.60;;;10.63;;
20709;SDS011;10516;51.518;9.864;2022-11-20T03:14:12;22.45;;;11.57;;
20709;SDS011;10516;51.518;9.864;2022-11-20T03:16:38;18.30;;;10.13;;
20709;SDS011;10516;51.518;9.864;2022-11-20T03:19:03;16.23;;;9.82;;
20709;SDS011;10516;51.518;9.864;2022-11-20T03:21:28;16.63;;;9.40;;
20709;SDS011;10516;51.518;9.864;2022-11-20T03:23:54;17.70;;;10.25;;
20709;SDS011;10516;51.518;9.864;2022-11-20T03:26:21;19.50;;;11.02;;
20709;SDS011;10516;51.518;9.864;2022-11-20T03:28:52;16.00;;;9.50;;
20709;SDS011;10516;51.518;9.864;2022-11-20T03:31:23;16.25;;;9.80;;
20709;SDS011;10516;51.518;9.864;2022-11-20T03:33:50;15.70;;;9.30;;
20709;SDS011;10516;51.518;9.864;2022-11-20T03:36:16;19.92;;;9.70;;
20709;SDS011;10516;51.518;9.864;2022-11-20T03:38:43;13.90;;;8.98;;
20709;SDS011;10516;51.518;9.864;2022-11-20T03:41:12;16.40;;;9.80;;
20709;SDS011;10516;51.518;9.864;2022-11-20T03:43:40;14.18;;;8.60;;
20709;SDS011;10516;51.518;9.864;2022-11-20T03:46:06;17.55;;;10.02;;
20709;SDS011;10516;51.518;9.864;2022-11-20T03:48:32;16.02;;;8.93;;
20709;SDS011;10516;51.518;9.864;2022-11-20T03:53:37;16.38;;;10.25;;
20709;SDS011;10516;51.518;9.864;2022-11-20T03:56:04;18.52;;;10.55;;
20709;SDS011;10516;51.518;9.864;2022-11-20T03:58:30;17.45;;;9.82;;
20709;SDS011;10516;51.518;9.864;2022-11-20T04:00:55;21.27;;;11.50;;
20709;SDS011;10516;51.518;9.864;2022-11-20T04:03:20;23.50;;;13.35;;
20709;SDS011;10516;51.518;9.864;2022-11-20T04:05:46;22.27;;;11.15;;
20709;SDS011;10516;51.518;9.864;2022-11-20T04:08:11;21.33;;;11.40;;
20709;SDS011;10516;51.518;9.864;2022-11-20T04:10:37;17.95;;;11.05;;
20709;SDS011;10516;51.518;9.864;2022-11-20T04:13:02;16.73;;;10.35;;
20709;SDS011;10516;51.518;9.864;2022-11-20T04:15:28;20.75;;;11.90;;
20709;SDS011;10516;51.518;9.864;2022-11-20T04:17:53;20.58;;;10.52;;
20709;SDS011;10516;51.518;9.864;2022-11-20T04:20:20;17.88;;;10.07;;
20709;SDS011;10516;51.518;9.864;2022-11-20T04:22:45;17.23;;;8.95;;
20709;SDS011;10516;51.518;9.864;2022-11-20T04:25:11;22.98;;;11.80;;
20709;SDS011;10516;51.518;9.864;2022-11-20T04:27:36;16.40;;;9.75;;
20709;SDS011;10516;51.518;9.864;2022-11-20T04:30:02;18.20;;;10.00;;
20709;SDS011;10516;51.518;9.864;2022-11-20T04:32:27;16.98;;;10.70;;
20709;SDS011;10516;51.518;9.864;2022-11-20T04:34:53;17.17;;;10.25;;
20709;SDS011;10516;51.518;9.864;2022-11-20T04:37:18;19.80;;;11.02;;
20709;SDS011;10516;51.518;9.864;2022-11-20T04:39:43;19.00;;;10.18;;
20709;SDS011;10516;51.518;9.864;2022-11-20T04:42:09;25.45;;;11.55;;
20709;SDS011;10516;51.518;9.864;2022-11-20T04:44:53;17.52;;;11.45;;
20709;SDS011;10516;51.518;9.864;2022-11-20T04:47:19;20.92;;;11.82;;
20709;SDS011;10516;51.518;9.864;2022-11-20T04:49:45;21.63;;;10.45;;
20709;SDS011;10516;51.518;9.864;2022-11-20T04:52:10;20.63;;;11.63;;
20709;SDS011;10516;51.518;9.864;2022-11-20T04:54:36;20.58;;;11.52;;
20709;SDS011;10516;51.518;9.864;2022-11-20T04:57:01;17.98;;;10.43;;
20709;SDS011;10516;51.518;9.864;2022-11-20T04:59:27;17.00;;;10.30;;
20709;SDS011;10516;51.518;9.864;2022-11-20T05:01:52;23.52;;;9.95;;
20709;SDS011;10516;51.518;9.864;2022-11-20T05:04:17;21.38;;;10.75;;
20709;SDS011;10516;51.518;9.864;2022-11-20T05:06:43;16.48;;;10.10;;
20709;SDS011;10516;51.518;9.864;2022-11-20T05:09:10;18.05;;;10.35;;
20709;SDS011;10516;51.518;9.864;2022-11-20T05:11:36;15.60;;;9.43;;
20709;SDS011;10516;51.518;9.864;2022-11-20T05:14:01;22.75;;;12.90;;
20709;SDS011;10516;51.518;9.864;2022-11-20T05:16:27;21.60;;;12.65;;
20709;SDS011;10516;51.518;9.864;2022-11-20T05:18:53;18.65;;;10.65;;
20709;SDS011;10516;51.518;9.864;2022-11-20T05:21:19;20.20;;;11.00;;
20709;SDS011;10516;51.518;9.864;2022-11-20T05:23:45;19.05;;;10.73;;
20709;SDS011;10516;51.518;9.864;2022-11-20T05:26:18;18.38;;;10.68;;
20709;SDS011;10516;51.518;9.864;2022-11-20T05:28:46;22.92;;;10.73;;
20709;SDS011;10516;51.518;9.864;2022-11-20T05:31:17;18.45;;;10.40;;
20709;SDS011;10516;51.518;9.864;2022-11-20T05:33:44;18.65;;;11.10;;
20709;SDS011;10516;51.518;9.864;2022-11-20T05:36:11;22.73;;;13.30;;
20709;SDS011;10516;51.518;9.864;2022-11-20T05:38:37;21.13;;;10.90;;
20709;SDS011;10516;51.518;9.864;2022-11-20T05:41:13;19.55;;;10.10;;
20709;SDS011;10516;51.518;9.864;2022-11-20T05:43:41;18.20;;;11.98;;
20709;SDS011;10516;51.518;9.864;2022-11-20T05:46:09;22.15;;;13.02;;
20709;SDS011;10516;51.518;9.864;2022-11-20T05:48:36;26.20;;;13.40;;
20709;SDS011;10516;51.518;9.864;2022-11-20T05:51:04;22.25;;;11.60;;
20709;SDS011;10516;51.518;9.864;2022-11-20T05:53:32;25.20;;;12.75;;
20709;SDS011;10516;51.518;9.864;2022-11-20T05:56:00;23.80;;;11.63;;
20709;SDS011;10516;51.518;9.864;2022-11-20T05:58:27;21.35;;;10.90;;
20709;SDS011;10516;51.518;9.864;2022-11-20T06:00:52;22.92;;;11.38;;
20709;SDS011;10516;51.518;9.864;2022-11-20T06:03:18;24.70;;;12.32;;
20709;SDS011;10516;51.518;9.864;2022-11-20T06:05:43;24.98;;;11.77;;
20709;SDS011;10516;51.518;9.864;2022-11-20T06:08:09;19.95;;;11.38;;
20709;SDS011;10516;51.518;9.864;2022-11-20T06:10:34;21.50;;;10.65;;
20709;SDS011;10516;51.518;9.864;2022-11-20T06:13:00;25.33;;;13.00;;
20709;SDS011;10516;51.518;9.864;2022-11-20T06:15:25;19.25;;;11.77;;
20709;SDS011;10516;51.518;9.864;2022-11-20T06:17:54;23.55;;;13.30;;
20709;SDS011;10516;51.518;9.864;2022-11-20T06:20:20;24.23;;;12.95;;
20709;SDS011;10516;51.518;9.864;2022-11-20T06:22:46;23.27;;;12.23;;
20709;SDS011;10516;51.518;9.864;2022-11-20T06:25:12;20.52;;;11.23;;
20709;SDS011;10516;51.518;9.864;2022-11-20T06:27:38;17.25;;;10.75;;
20709;SDS011;10516;51.518;9.864;2022-11-20T06:30:03;22.58;;;11.07;;
20709;SDS011;10516;51.518;9.864;2022-11-20T06:32:29;22.90;;;11.75;;
20709;SDS011;10516;51.518;9.864;2022-11-20T06:34:55;20.13;;;11.50;;
20709;SDS011;10516;51.518;9.864;2022-11-20T06:37:20;21.55;;;11.35;;
20709;SDS011;10516;51.518;9.864;2022-11-20T06:39:45;15.90;;;9.65;;
20709;SDS011;10516;51.518;9.864;2022-11-20T06:42:11;20.25;;;10.88;;
20709;SDS011;10516;51.518;9.864;2022-11-20T06:44:36;22.40;;;11.77;;
20709;SDS011;10516;51.518;9.864;2022-11-20T06:47:02;19.05;;;11.48;;
20709;SDS011;10516;51.518;9.864;2022-11-20T06:49:27;27.35;;;14.02;;
20709;SDS011;10516;51.518;9.864;2022-11-20T06:51:55;27.92;;;16.00;;
20709;SDS011;10516;51.518;9.864;2022-11-20T06:54:20;24.63;;;13.07;;
20709;SDS011;10516;51.518;9.864;2022-11-20T06:56:48;28.48;;;13.27;;
20709;SDS011;10516;51.518;9.864;2022-11-20T06:59:14;30.60;;;14.80;;
20709;SDS011;10516;51.518;9.864;2022-11-20T07:01:39;23.38;;;12.63;;
20709;SDS011;10516;51.518;9.864;2022-11-20T07:04:05;26.42;;;13.05;;
20709;SDS011;10516;51.518;9.864;2022-11-20T07:06:30;29.70;;;15.27;;
20709;SDS011;10516;51.518;9.864;2022-11-20T07:08:56;30.38;;;12.95;;
20709;SDS011;10516;51.518;9.864;2022-11-20T07:11:22;24.85;;;13.10;;
20709;SDS011;10516;51.518;9.864;2022-11-20T07:13:48;26.00;;;13.25;;
20709;SDS011;10516;51.518;9.864;2022-11-20T07:16:13;27.23;;;14.75;;
20709;SDS011;10516;51.518;9.864;2022-11-20T07:18:38;23.48;;;12.15;;
20709;SDS011;10516;51.518;9.864;2022-11-20T07:21:05;24.20;;;14.02;;
20709;SDS011;10516;51.518;9.864;2022-11-20T07:23:32;26.40;;;14.27;;
20709;SDS011;10516;51.518;9.864;2022-11-20T07:25:57;25.75;;;13.30;;
20709;SDS011;10516;51.518;9.864;2022-11-20T07:28:23;29.27;;;13.13;;
20709;SDS011;10516;51.518;9.864;2022-11-20T07:30:52;26.50;;;12.88;;
20709;SDS011;10516;51.518;9.864;2022-11-20T07:33:18;29.88;;;14.30;;
20709;SDS011;10516;51.518;9.864;2022-11-20T07:35:43;26.80;;;14.23;;
20709;SDS011;10516;51.518;9.864;2022-11-20T07:38:09;28.48;;;14.75;;
20709;SDS011;10516;51.518;9.864;2022-11-20T07:40:34;31.98;;;17.02;;
20709;SDS011;10516;51.518;9.864;2022-11-20T07:42:59;32.75;;;16.40;;
20709;SDS011;10516;51.518;9.864;2022-11-20T07:45:25;34.40;;;16.30;;
20709;SDS011;10516;51.518;9.864;2022-11-20T07:47:50;26.17;;;14.57;;
20709;SDS011;10516;51.518;9.864;2022-11-20T07:50:16;22.52;;;12.85;;
20709;SDS011;10516;51.518;9.864;2022-11-20T07:52:42;27.40;;;14.10;;
20709;SDS011;10516;51.518;9.864;2022-11-20T07:55:08;28.17;;;15.32;;
20709;SDS011;10516;51.518;9.864;2022-11-20T07:57:34;36.95;;;16.90;;
20709;SDS011;10516;51.518;9.864;2022-11-20T08:00:00;31.52;;;16.88;;
20709;SDS011;10516;51.518;9.864;2022-11-20T08:02:25;35.20;;;15.70;;
20709;SDS011;10516;51.518;9.864;2022-11-20T08:04:50;38.03;;;17.75;;
20709;SDS011;10516;51.518;9.864;2022-11-20T08:07:16;26.92;;;15.07;;
20709;SDS011;10516;51.518;9.864;2022-11-20T08:09:41;33.70;;;17.60;;
20709;SDS011;10516;51.518;9.864;2022-11-20T08:12:07;33.28;;;16.10;;
20709;SDS011;10516;51.518;9.864;2022-11-20T08:15:03;39.88;;;19.63;;
20709;SDS011;10516;51.518;9.864;2022-11-20T08:17:29;40.17;;;20.42;;
20709;SDS011;10516;51.518;9.864;2022-11-20T08:19:54;34.78;;;17.73;;
20709;SDS011;10516;51.518;9.864;2022-11-20T08:22:20;33.65;;;15.07;;
20709;SDS011;10516;51.518;9.864;2022-11-20T08:24:45;58.95;;;26.40;;
20709;SDS011;10516;51.518;9.864;2022-11-20T08:27:11;57.53;;;29.77;;
20709;SDS011;10516;51.518;9.864;2022-11-20T08:29:37;53.80;;;26.50;;
20709;SDS011;10516;51.518;9.864;2022-11-20T08:32:02;39.67;;;17.58;;
20709;SDS011;10516;51.518;9.864;2022-11-20T08:34:27;47.17;;;20.50;;
20709;SDS011;10516;51.518;9.864;2022-11-20T08:36:53;41.58;;;18.58;;
20709;SDS011;10516;51.518;9.864;2022-11-20T08:39:18;40.72;;;20.05;;
20709;SDS011;10516;51.518;9.864;2022-11-20T08:41:44;43.33;;;20.58;;
20709;SDS011;10516;51.518;9.864;2022-11-20T08:44:09;46.83;;;22.63;;
20709;SDS011;10516;51.518;9.864;2022-11-20T08:46:41;42.25;;;19.25;;
20709;SDS011;10516;51.518;9.864;2022-11-20T08:49:09;53.85;;;24.23;;
20709;SDS011;10516;51.518;9.864;2022-11-20T08:51:36;48.83;;;24.08;;
20709;SDS011;10516;51.518;9.864;2022-11-20T08:54:03;47.85;;;23.05;;
20709;SDS011;10516;51.518;9.864;2022-11-20T08:56:29;51.85;;;23.90;;
20709;SDS011;10516;51.518;9.864;2022-11-20T08:58:54;44.10;;;19.00;;
20709;SDS011;10516;51.518;9.864;2022-11-20T09:01:20;34.33;;;16.27;;
20709;SDS011;10516;51.518;9.864;2022-11-20T09:03:47;31.20;;;16.50;;
20709;SDS011;10516;51.518;9.864;2022-11-20T09:06:13;32.53;;;16.25;;
20709;SDS011;10516;51.518;9.864;2022-11-20T09:08:38;35.65;;;16.88;;
20709;SDS011;10516;51.518;9.864;2022-11-20T09:11:04;36.05;;;16.50;;
20709;SDS011;10516;51.518;9.864;2022-11-20T09:13:31;32.70;;;15.90;;
20709;SDS011;10516;51.518;9.864;2022-11-20T09:15:58;27.98;;;15.23;;
20709;SDS011;10516;51.518;9.864;2022-11-20T09:18:26;26.25;;;14.52;;
20709;SDS011;10516;51.518;9.864;2022-11-20T09:20:56;25.45;;;13.93;;
20709;SDS011;10516;51.518;9.864;2022-11-20T09:23:22;28.20;;;14.15;;
20709;SDS011;10516;51.518;9.864;2022-11-20T09:25:48;30.13;;;14.65;;
20709;SDS011;10516;51.518;9.864;2022-11-20T09:28:13;29.25;;;14.48;;
20709;SDS011;10516;51.518;9.864;2022-11-20T09:30:39;30.60;;;15.93;;
20709;SDS011;10516;51.518;9.864;2022-11-20T09:33:05;34.47;;;18.48;;
20709;SDS011;10516;51.518;9.864;2022-11-20T09:35:31;27.90;;;14.35;;
20709;SDS011;10516;51.518;9.864;2022-11-20T09:37:57;31.75;;;15.70;;
20709;SDS011;10516;51.518;9.864;2022-11-20T09:40:23;32.38;;;15.13;;
20709;SDS011;10516;51.518;9.864;2022-11-20T09:43:01;29.90;;;14.27;;
20709;SDS011;10516;51.518;9.864;2022-11-20T09:46:20;29.90;;;15.00;;
20709;SDS011;10516;51.518;9.864;2022-11-20T09:48:20;29.15;;;15.32;;
20709;SDS011;10516;51.518;9.864;2022-11-20T09:51:16;30.33;;;15.63;;
20709;SDS011;10516;51.518;9.864;2022-11-20T09:56:31;28.63;;;14.38;;
20709;SDS011;10516;51.518;9.864;2022-11-20T09:58:59;27.10;;;14.32;;
20709;SDS011;10516;51.518;9.864;2022-11-20T10:01:30;28.58;;;14.30;;
20709;SDS011;10516;51.518;9.864;2022-11-20T10:04:04;28.88;;;14.38;;
20709;SDS011;10516;51.518;9.864;2022-11-20T10:06:40;29.75;;;15.80;;
20709;SDS011;10516;51.518;9.864;2022-11-20T10:14:35;36.47;;;18.30;;
20709;SDS011;10516;51.518;9.864;2022-11-20T10:25:24;31.08;;;15.57;;
20709;SDS011;10516;51.518;9.864;2022-11-20T10:30:57;27.70;;;13.88;;
20709;SDS011;10516;51.518;9.864;2022-11-20T10:33:31;27.70;;;14.50;;
20709;SDS011;10516;51.518;9.864;2022-11-20T10:39:26;24.20;;;13.60;;
20709;SDS011;10516;51.518;9.864;2022-11-20T10:41:46;32.95;;;16.50;;
20709;SDS011;10516;51.518;9.864;2022-11-20T10:44:36;30.50;;;16.42;;
20709;SDS011;10516;51.518;9.864;2022-11-20T10:47:20;33.63;;;17.02;;
20709;SDS011;10516;51.518;9.864;2022-11-20T10:49:48;27.23;;;14.43;;
20709;SDS011;10516;51.518;9.864;2022-11-20T10:57:55;35.00;;;17.15;;
20709;SDS011;10516;51.518;9.864;2022-11-20T11:00:44;24.55;;;12.68;;
20709;SDS011;10516;51.518;9.864;2022-11-20T11:03:28;25.85;;;13.63;;
20709;SDS011;10516;51.518;9.864;2022-11-20T11:08:23;23.90;;;12.90;;
20709;SDS011;10516;51.518;9.864;2022-11-20T11:10:57;27.45;;;16.55;;
20709;SDS011;10516;51.518;9.864;2022-11-20T11:13:30;31.40;;;13.45;;
20709;SDS011;10516;51.518;9.864;2022-11-20T11:15:57;30.45;;;16.17;;
20709;SDS011;10516;51.518;9.864;2022-11-20T11:18:33;27.00;;;14.18;;
20709;SDS011;10516;51.518;9.864;2022-11-20T11:21:00;25.25;;;13.45;;
20709;SDS011;10516;51.518;9.864;2022-11-20T11:25:59;29.98;;;16.00;;
20709;SDS011;10516;51.518;9.864;2022-11-20T11:28:25;30.98;;;16.38;;
20709;SDS011;10516;51.518;9.864;2022-11-20T11:30:52;36.03;;;18.40;;
20709;SDS011;10516;51.518;9.864;2022-11-20T11:33:23;43.47;;;20.67;;
20709;SDS011;10516;51.518;9.864;2022-11-20T11:35:51;26.15;;;15.05;;
20709;SDS011;10516;51.518;9.864;2022-11-20T11:41:18;31.73;;;17.45;;
20709;SDS011;10516;51.518;9.864;2022-11-20T11:43:51;65.22;;;22.48;;
20709;SDS011;10516;51.518;9.864;2022-11-20T11:46:37;141.70;;;28.63;;
20709;SDS011;10516;51.518;9.864;2022-11-20T11:54:41;33.30;;;16.45;;
20709;SDS011;10516;51.518;9.864;2022-11-20T11:57:37;33.88;;;17.20;;
20709;SDS011;10516;51.518;9.864;2022-11-20T12:02:38;35.55;;;16.95;;
20709;SDS011;10516;51.518;9.864;2022-11-20T12:07:43;329.60;;;41.85;;
20709;SDS011;10516;51.518;9.864;2022-11-20T12:10:14;85.68;;;21.98;;
20709;SDS011;10516;51.518;9.864;2022-11-20T12:12:50;63.10;;;17.05;;
20709;SDS011;10516;51.518;9.864;2022-11-20T12:15:30;46.67;;;17.83;;
20709;SDS011;10516;51.518;9.864;2022-11-20T12:17:58;43.55;;;17.02;;
20709;SDS011;10516;51.518;9.864;2022-11-20T12:20:25;33.75;;;15.52;;
20709;SDS011;10516;51.518;9.864;2022-11-20T12:23:06;29.17;;;16.08;;
20709;SDS011;10516;51.518;9.864;2022-11-20T12:25:40;34.65;;;15.65;;
20709;SDS011;10516;51.518;9.864;2022-11-20T12:28:19;29.13;;;16.65;;
20709;SDS011;10516;51.518;9.864;2022-11-20T12:31:00;34.53;;;15.18;;
20709;SDS011;10516;51.518;9.864;2022-11-20T12:36:32;43.25;;;16.80;;
20709;SDS011;10516;51.518;9.864;2022-11-20T12:41:46;37.40;;;19.35;;
20709;SDS011;10516;51.518;9.864;2022-11-20T12:50:28;30.48;;;15.15;;
20709;SDS011;10516;51.518;9.864;2022-11-20T12:52:56;24.42;;;13.18;;
20709;SDS011;10516;51.518;9.864;2022-11-20T12:55:33;22.98;;;13.25;;
20709;SDS011;10516;51.518;9.864;2022-11-20T12:58:18;21.70;;;12.35;;
20709;SDS011;10516;51.518;9.864;2022-11-20T13:03:47;24.55;;;12.73;;
20709;SDS011;10516;51.518;9.864;2022-11-20T13:06:19;22.05;;;12.55;;
20709;SDS011;10516;51.518;9.864;2022-11-20T13:09:04;22.05;;;12.00;;
20709;SDS011;10516;51.518;9.864;2022-11-20T13:17:52;32.13;;;11.45;;
20709;SDS011;10516;51.518;9.864;2022-11-20T13:20:13;28.42;;;12.00;;
20709;SDS011;10516;51.518;9.864;2022-11-20T13:22:51;21.15;;;10.77;;
20709;SDS011;10516;51.518;9.864;2022-11-20T13:25:28;21.20;;;9.55;;
20709;SDS011;10516;51.518;9.864;2022-11-20T13:30:34;19.73;;;10.05;;
20709;SDS011;10516;51.518;9.864;2022-11-20T13:33:22;15.57;;;8.77;;
20709;SDS011;10516;51.518;9.864;2022-11-20T13:36:20;13.65;;;8.32;;
20709;SDS011;10516;51.518;9.864;2022-11-20T13:38:49;13.47;;;8.10;;
20709;SDS011;10516;51.518;9.864;2022-11-20T13:41:30;12.95;;;7.25;;
20709;SDS011;10516;51.518;9.864;2022-11-20T13:46:44;12.15;;;7.45;;
20709;SDS011;10516;51.518;9.864;2022-11-20T13:49:18;11.95;;;7.97;;
20709;SDS011;10516;51.518;9.864;2022-11-20T13:51:46;10.00;;;6.72;;
20709;SDS011;10516;51.518;9.864;2022-11-20T14:00:03;10.88;;;6.43;;
20709;SDS011;10516;51.518;9.864;2022-11-20T14:02:51;12.13;;;6.80;;
20709;SDS011;10516;51.518;9.864;2022-11-20T14:05:26;9.93;;;6.43;;
20709;SDS011;10516;51.518;9.864;2022-11-20T14:07:51;12.52;;;7.18;;
20709;SDS011;10516;51.518;9.864;2022-11-20T14:10:23;13.00;;;6.45;;
20709;SDS011;10516;51.518;9.864;2022-11-20T14:12:51;10.30;;;6.00;;
20709;SDS011;10516;51.518;9.864;2022-11-20T14:15:27;20.73;;;10.32;;
20709;SDS011;10516;51.518;9.864;2022-11-20T14:17:57;10.15;;;5.68;;
20709;SDS011;10516;51.518;9.864;2022-11-20T14:20:26;10.38;;;6.55;;
20709;SDS011;10516;51.518;9.864;2022-11-20T14:22:54;12.35;;;7.53;;
20709;SDS011;10516;51.518;9.864;2022-11-20T14:25:21;13.00;;;7.38;;
20709;SDS011;10516;51.518;9.864;2022-11-20T14:27:58;11.25;;;7.65;;
20709;SDS011;10516;51.518;9.864;2022-11-20T14:30:26;11.05;;;6.95;;
20709;SDS011;10516;51.518;9.864;2022-11-20T14:32:54;11.07;;;7.93;;
20709;SDS011;10516;51.518;9.864;2022-11-20T14:35:26;9.93;;;6.68;;
20709;SDS011;10516;51.518;9.864;2022-11-20T14:37:54;14.60;;;7.22;;
20709;SDS011;10516;51.518;9.864;2022-11-20T14:40:31;8.85;;;6.28;;
20709;SDS011;10516;51.518;9.864;2022-11-20T14:43:01;9.77;;;6.45;;
20709;SDS011;10516;51.518;9.864;2022-11-20T14:45:41;9.07;;;6.63;;
20709;SDS011;10516;51.518;9.864;2022-11-20T14:48:08;11.20;;;6.85;;
20709;SDS011;10516;51.518;9.864;2022-11-20T14:50:35;10.80;;;6.75;;
20709;SDS011;10516;51.518;9.864;2022-11-20T14:53:03;16.08;;;9.60;;
20709;SDS011;10516;51.518;9.864;2022-11-20T14:55:33;103.63;;;47.88;;
20709;SDS011;10516;51.518;9.864;2022-11-20T14:58:01;67.35;;;30.95;;
20709;SDS011;10516;51.518;9.864;2022-11-20T15:00:30;30.25;;;13.73;;
20709;SDS011;10516;51.518;9.864;2022-11-20T15:02:56;27.98;;;13.70;;
20709;SDS011;10516;51.518;9.864;2022-11-20T15:05:26;26.50;;;13.00;;
20709;SDS011;10516;51.518;9.864;2022-11-20T15:08:10;27.00;;;12.82;;
20709;SDS011;10516;51.518;9.864;2022-11-20T15:10:35;29.27;;;14.75;;
20709;SDS011;10516;51.518;9.864;2022-11-20T15:13:04;38.15;;;18.58;;
20709;SDS011;10516;51.518;9.864;2022-11-20T15:15:35;21.75;;;11.23;;
20709;SDS011;10516;51.518;9.864;2022-11-20T15:18:09;26.70;;;12.83;;
20709;SDS011;10516;51.518;9.864;2022-11-20T15:20:37;24.67;;;13.20;;
20709;SDS011;10516;51.518;9.864;2022-11-20T15:23:08;20.27;;;11.63;;
20709;SDS011;10516;51.518;9.864;2022-11-20T15:25:36;25.67;;;12.63;;
20709;SDS011;10516;51.518;9.864;2022-11-20T15:28:04;22.48;;;11.68;;
20709;SDS011;10516;51.518;9.864;2022-11-20T15:30:38;18.75;;;10.88;;
20709;SDS011;10516;51.518;9.864;2022-11-20T15:33:04;20.52;;;12.23;;
20709;SDS011;10516;51.518;9.864;2022-11-20T15:35:30;18.73;;;11.38;;
20709;SDS011;10516;51.518;9.864;2022-11-20T15:37:55;22.67;;;11.52;;
20709;SDS011;10516;51.518;9.864;2022-11-20T15:40:20;21.65;;;11.82;;
20709;SDS011;10516;51.518;9.864;2022-11-20T15:42:46;25.70;;;12.73;;
20709;SDS011;10516;51.518;9.864;2022-11-20T15:48:00;86.93;;;34.85;;
20709;SDS011;10516;51.518;9.864;2022-11-20T15:50:27;61.20;;;28.20;;
20709;SDS011;10516;51.518;9.864;2022-11-20T15:52:58;27.00;;;13.90;;
20709;SDS011;10516;51.518;9.864;2022-11-20T15:55:23;23.58;;;12.07;;
20709;SDS011;10516;51.518;9.864;2022-11-20T15:57:49;20.15;;;12.15;;
20709;SDS011;10516;51.518;9.864;2022-11-20T16:00:14;25.02;;;13.95;;
20709;SDS011;10516;51.518;9.864;2022-11-20T16:02:40;26.17;;;15.40;;